Nearby METAR Reports

 

KPTW - Pottstown, Pennsylvania, USA
Distance from station: NE 6mi, 10km
Updated: 09/24/2018 10:54am
Overcast
Overcast
 Wind from ENE
Wind: ENE 7 mph , 11 km/h
Temperature: 61°F , 16°C
Dew Point: 52°F , 11°C
Humidity: 72%
Barometer: 30.45 inHg , 1031.2 hPa
Clouds: Overcast
Visibility: 10 miles , 16 km
Cloud details: Overcast 4000 ft
2018/09/24 14:54 KPTW 241454Z AUTO 07006KT 10SM OVC040 16/11 A3045 RMK AO2 SLP308 T01610111 51018
KMQS - Coatesville, Pennsylvania, USA
Distance from station: SW 18mi, 29km
Updated: 09/24/2018 10:55am
Overcast
Overcast
 Wind from E
Wind: E 12 mph , 19 km/h
Temperature: 61°F , 16°C
Dew Point: 59°F , 15°C
Humidity: 94%
Barometer: 30.43 inHg , 1030.5 hPa
Clouds: Overcast
Visibility: 10 miles , 16 km
Cloud details: Mostly Cloudy 700 ft
Overcast 1000 ft
2018/09/24 14:55 KMQS 241455Z AUTO 08010KT 10SM BKN007 OVC010 16/15 A3043 RMK AO2
 
KLOM - Philly Wings F, Pennsylvania, USA
Distance from station: E 19mi, 31km
Updated: 09/24/2018 10:55am
Mostly Cloudy
Mostly Cloudy
 Wind from ENE
Wind: ENE 8 mph , 13 km/h
Temperature: 61°F , 16°C
Dew Point: 55°F , 13°C
Humidity: 83%
Barometer: 30.45 inHg , 1031.2 hPa
Clouds: Mostly Cloudy
Visibility: 10 miles , 16 km
Cloud details: Partly Cloudy 1600 ft
Mostly Cloudy 4300 ft
2018/09/24 14:55 KLOM 241455Z AUTO 06007KT 10SM SCT016 BKN043 16/13 A3045 RMK AO1
KRDG - Reading, Pennsylvania, USA
Distance from station: NW 22mi, 36km
Updated: 09/24/2018 10:54am
Overcast
Overcast
 Wind from E
Wind: E 8 mph , 13 km/h
Temperature: 64°F , 18°C
Dew Point: 55°F , 13°C
Humidity: 73%
Barometer: 30.41 inHg , 1029.8 hPa
Clouds: Overcast
Visibility: 10 miles , 16 km
Cloud details: Mostly Cloudy 1500 ft
Overcast 3600 ft
2018/09/24 14:54 KRDG 241454Z 08007KT 030V090 10SM BKN015 OVC036 18/13 A3041 RMK AO2 SLP303 T01780128 51016
 
KUKT - Quakertown Arp, Pennsylvania, USA
Distance from station: NE 22mi, 36km
Updated: 09/24/2018 10:55am
Partly Cloudy
Partly Cloudy
 Wind from varies
Wind: varies 6 mph , 9 km/h
Temperature: 63°F , 17°C
Dew Point: 54°F , 12°C
Humidity: 73%
Barometer: 30.45 inHg , 1031.2 hPa
Clouds: Partly Cloudy
Visibility: 10 miles , 16 km
Cloud details: Partly Cloudy 3800 ft
2018/09/24 14:55 KUKT 241455Z AUTO VRB05KT 10SM SCT038 17/12 A3045 RMK A01
KXLL - Allentown Queen, Pennsylvania, USA
Distance from station: NNE 28mi, 46km
Updated: 09/24/2018 10:55am
Partly Cloudy
Partly Cloudy
 Wind from NNE
Wind: NNE 8 mph , 13 km/h
Barometer: 30.46 inHg , 1031.5 hPa
Clouds: Partly Cloudy
Visibility: 10 miles , 16 km
Cloud details: Partly Cloudy 3900 ft
2018/09/24 14:55 KXLL 241455Z AUTO 02007KT 10SM SCT039 A3046 RMK AO2
 
KDYL - Doylestown, Pennsylvania, USA
Distance from station: ENE 29mi, 47km
Updated: 09/24/2018 10:54am
Clear
Clear
 Wind from varies
Wind: varies 3 mph , 6 km/h
Temperature: 63°F , 17°C
Dew Point: 54°F , 12°C
Humidity: 73%
Barometer: 30.44 inHg , 1030.8 hPa
Clouds: Clear
Visibility: 10 miles , 16 km
2018/09/24 14:54 KDYL 241454Z AUTO VRB03KT 10SM CLR 17/12 A3044 RMK AO2 SLP305 T01720122 51017
KPHL - Philadelphia, Pennsylvania, USA
Distance from station: SE 30mi, 48km
Updated: 09/24/2018 10:54am
Overcast
Overcast
 Wind from NE
Wind: NE 14 mph , 22 km/h, Gust: 18 mph , 30 km/h
Temperature: 64°F , 18°C
Dew Point: 61°F , 16°C
Humidity: 88%
Barometer: 30.42 inHg , 1030.1 hPa
Clouds: Overcast
Visibility: 10 miles , 16 km
Cloud details: Few Clouds 1300 ft
Partly Cloudy 4200 ft
Mostly Cloudy 9000 ft
Overcast 14000 ft
2018/09/24 14:54 KPHL 241454Z 05012G16KT 10SM FEW013 SCT042 BKN090 OVC140 18/16 A3042 RMK AO2 RAE14 SLP299 P0000 60001 T01780156 51016
 
KPNE - Philadelphia/Ne, Pennsylvania, USA
Distance from station: E 33mi, 53km
Updated: 09/24/2018 10:54am
Few Clouds
Few Clouds
 Wind from ENE
Wind: ENE 13 mph , 20 km/h
Temperature: 66°F , 19°C
Dew Point: 59°F , 15°C
Humidity: 78%
Barometer: 30.44 inHg , 1030.8 hPa
Clouds: Few Clouds
Visibility: 10 miles , 16 km
Cloud details: Few Clouds 1700 ft
2018/09/24 14:54 KPNE 241454Z 07011KT 10SM FEW017 19/15 A3044 RMK AO2 SLP308 T01890150 51017
KABE - Allentown, Pennsylvania, USA
Distance from station: NNE 34mi, 55km
Updated: 09/24/2018 10:51am
Clear
Clear
 Wind from ENE
Wind: ENE 14 mph , 22 km/h
Temperature: 61°F , 16°C
Dew Point: 50°F , 10°C
Humidity: 68%
Barometer: 30.46 inHg , 1031.5 hPa
Clouds: Clear
Visibility: 10 miles , 16 km
2018/09/24 14:51 KABE 241451Z 06012KT 10SM CLR 16/10 A3046 RMK AO2 SLP313 T01560100 51018
 
KILG - Wilmington, Delaware, USA
Distance from station: S 35mi, 56km
Updated: 09/24/2018 10:51am
Overcast
Overcast
 Wind from ENE
Wind: ENE 14 mph , 22 km/h
Temperature: 63°F , 17°C
Dew Point: 61°F , 16°C
Humidity: 94%
Barometer: 30.41 inHg , 1029.8 hPa
Clouds: Overcast
Visibility: 10 miles , 16 km
Cloud details: Partly Cloudy 900 ft
Partly Cloudy 1300 ft
Overcast 3100 ft
2018/09/24 14:51 KILG 241451Z 06012KT 10SM SCT009 SCT013 OVC031 17/16 A3041 RMK AO2 RAE37 SLP297 P0001 60002 T01720161 51006
KLNS - Lancaster, Pennsylvania, USA
Distance from station: W 36mi, 57km
Updated: 09/24/2018 10:53am
Overcast
Overcast
 Wind from E
Wind: E 10 mph , 17 km/h
Temperature: 63°F , 17°C
Dew Point: 61°F , 16°C
Humidity: 94%
Barometer: 30.41 inHg , 1029.8 hPa
Clouds: Overcast
Visibility: 10 miles , 16 km
Cloud details: Overcast 1500 ft
2018/09/24 14:53 KLNS 241453Z 09009KT 10SM OVC015 17/16 A3041 RMK AO2 SLP297 60000 T01720156 51015
 
KTTN - Trenton, New Jersey, USA
Distance from station: E 44mi, 70km
Updated: 09/24/2018 10:53am
Mostly Cloudy
Mostly Cloudy
 Wind from E
Wind: E 14 mph , 22 km/h
Temperature: 64°F , 18°C
Dew Point: 57°F , 14°C
Humidity: 78%
Barometer: 30.43 inHg , 1030.5 hPa
Clouds: Mostly Cloudy
Visibility: 10 miles , 16 km
Cloud details: Mostly Cloudy 2300 ft
2018/09/24 14:53 KTTN 241453Z 08012KT 10SM BKN023 18/14 A3043 RMK AO2 SLP299 T01830139 51018
KVAY - Mount Holly, New Jersey, USA
Distance from station: ESE 45mi, 73km
Updated: 09/24/2018 10:54am
Clear
Clear
 Wind from NE
Wind: NE 9 mph , 15 km/h
Temperature: 64°F , 18°C
Dew Point: 61°F , 16°C
Humidity: 88%
Barometer: 30.42 inHg , 1030.1 hPa
Clouds: Clear
Visibility: 10 miles , 16 km
2018/09/24 14:54 KVAY 241454Z AUTO 05008KT 10SM CLR 18/16 A3042 RMK AO2 SLP299 60000 T01830161 51017
 
KMUI - Muir Aaf/Indiant, Pennsylvania, USA
Distance from station: WNW 52mi, 84km
Updated: 09/24/2018 10:56am
Overcast
Overcast
 Wind from ENE
Wind: ENE 7 mph , 11 km/h
Temperature: 63°F , 17°C
Dew Point: 55°F , 13°C
Humidity: 77%
Barometer: 30.42 inHg , 1030.1 hPa
Clouds: Overcast
Visibility: 10 miles , 16 km
Cloud details: Mostly Cloudy 1700 ft
Overcast 2500 ft
2018/09/24 14:56 KMUI 241456Z 07006KT 10SM BKN017 OVC025 17/13 A3042 RMK AO2A SLP304 60000 T01690130 51014 $
KAPG - Aberdeen/Phillip, Maryland, USA
Distance from station: SSW 56mi, 91km
Updated: 09/24/2018 9:49am
Mist, Overcast
Mist, Overcast
 Wind from ENE
Wind: ENE 9 mph , 15 km/h
Temperature: 63°F , 17°C
Dew Point: 61°F , 16°C
Humidity: 94%
Barometer: 30.38 inHg , 1028.8 hPa
Summary: Mist
Clouds: Overcast
Visibility: 6 miles , 10 km
Cloud details: Mostly Cloudy 1200 ft
Overcast 2500 ft
2018/09/24 13:49 KAPG 241349Z 07008KT 6SM BR BKN012 OVC025 17/16 A3038 RMK SLP291
 
KWRI - Wrightst/Mcguire, New Jersey, USA
Distance from station: E 56mi, 91km
Updated: 09/24/2018 9:56am
Few Clouds
Few Clouds
 Wind from NE
Wind: NE 13 mph , 20 km/h
Temperature: 63°F , 17°C
Dew Point: 59°F , 15°C
Humidity: 88%
Barometer: 30.39 inHg , 1029.1 hPa
Clouds: Few Clouds
Visibility: 10 miles , 16 km
Cloud details: Few Clouds 13000 ft
2018/09/24 13:56 KWRI 241356Z 04011KT 10SM FEW130 17/15 A3039 RMK AO2A SLP290 T01740154 $
KSMQ - Somerville, New Jersey, USA
Distance from station: ENE 59mi, 96km
Updated: 09/24/2018 10:53am
Clear
Clear
 Wind from varies
Wind: varies 5 mph , 7 km/h
Temperature: 61°F , 16°C
Dew Point: 52°F , 11°C
Humidity: 72%
Barometer: 30.45 inHg , 1031.2 hPa
Clouds: Clear
Visibility: 10 miles , 16 km
2018/09/24 14:53 KSMQ 241453Z AUTO VRB04KT 10SM CLR 16/11 A3045 RMK AO2 SLP311 T01610111 51019
 
KMDT - Middletown, Pennsylvania, USA
Distance from station: W 60mi, 97km
Updated: 09/24/2018 10:56am
Overcast
Overcast
 Wind from ESE
Wind: ESE 12 mph , 19 km/h
Temperature: 64°F , 18°C
Dew Point: 59°F , 15°C
Humidity: 83%
Barometer: 30.39 inHg , 1029.1 hPa
Clouds: Overcast
Visibility: 10 miles , 16 km
Cloud details: Partly Cloudy 1300 ft
Overcast 2000 ft
2018/09/24 14:56 KMDT 241456Z 11010KT 10SM SCT013 OVC020 18/15 A3039 RMK AO2 SLP292 T01780150 51012 $
KMIV - Millville, New Jersey, USA
Distance from station: SSE 63mi, 101km
Updated: 09/24/2018 10:54am
Overcast
Overcast
 Wind from ENE
Wind: ENE 7 mph , 11 km/h
Temperature: 64°F , 18°C
Dew Point: 63°F , 17°C
Humidity: 94%
Barometer: 30.39 inHg , 1029.1 hPa
Clouds: Overcast
Visibility: 10 miles , 16 km
Cloud details: Few Clouds 1000 ft
Mostly Cloudy 2800 ft
Overcast 3500 ft
2018/09/24 14:54 KMIV 241454Z AUTO 07006KT 10SM FEW010 BKN028 OVC035 18/17 A3039 RMK AO2 SLP290 T01830172 51015